createdAt,value
2019-03-28T00:02:15.443Z,49.80
2019-03-28T00:04:44.042Z,49.80
2019-03-28T00:07:13.090Z,49.80
2019-03-28T00:09:41.756Z,49.80
2019-03-28T00:12:10.316Z,49.90
2019-03-28T00:14:38.825Z,50.10
2019-03-28T00:17:07.645Z,50.10
2019-03-28T00:19:36.122Z,50.00
2019-03-28T00:22:05.868Z,50.00
2019-03-28T00:24:45.186Z,49.90
2019-03-28T00:27:13.743Z,50.00
2019-03-28T00:29:42.324Z,50.00
2019-03-28T00:32:11.117Z,50.00
2019-03-28T00:34:39.581Z,50.00
2019-03-28T00:37:09.006Z,50.00
2019-03-28T00:39:37.779Z,50.00
2019-03-28T00:42:06.467Z,50.10
2019-03-28T00:44:35.037Z,50.00
2019-03-28T00:47:03.935Z,49.80
2019-03-28T00:49:32.622Z,49.80
2019-03-28T00:52:01.408Z,49.80
2019-03-28T00:54:29.920Z,49.80
2019-03-28T00:56:58.573Z,49.80
2019-03-28T00:59:27.256Z,49.90
2019-03-28T01:01:56.088Z,49.80
2019-03-28T01:04:24.728Z,49.80
2019-03-28T01:06:53.231Z,49.80
2019-03-28T01:09:21.854Z,49.70
2019-03-28T01:11:50.377Z,49.70
2019-03-28T01:14:19.055Z,49.70
2019-03-28T01:16:47.730Z,49.80
2019-03-28T01:19:16.311Z,49.80
2019-03-28T01:21:45.012Z,49.80
2019-03-28T01:24:13.592Z,49.70
2019-03-28T01:26:42.378Z,50.50
2019-03-28T01:29:10.962Z,49.70
2019-03-28T01:31:39.643Z,49.80
2019-03-28T01:34:08.311Z,49.90
2019-03-28T01:36:37.018Z,49.90
2019-03-28T01:39:06.524Z,50.00
2019-03-28T01:41:35.203Z,49.90
2019-03-28T01:44:03.785Z,50.00
2019-03-28T01:46:32.479Z,50.00
2019-03-28T01:49:03.615Z,49.90
2019-03-28T01:51:31.491Z,49.90
2019-03-28T01:54:00.062Z,50.00
2019-03-28T01:56:28.865Z,50.10
2019-03-28T01:58:57.553Z,50.30
2019-03-28T02:01:26.097Z,50.40
2019-03-28T02:03:54.691Z,50.30
2019-03-28T02:06:23.386Z,50.40
2019-03-28T02:08:52.071Z,50.30
2019-03-28T02:11:20.553Z,50.60
2019-03-28T02:13:49.122Z,50.50
2019-03-28T02:16:17.806Z,50.90
2019-03-28T02:18:46.389Z,50.90
2019-03-28T02:21:14.974Z,51.00
2019-03-28T02:23:43.657Z,51.10
2019-03-28T02:26:12.236Z,51.30
2019-03-28T02:28:41.127Z,51.00
2019-03-28T02:31:10.016Z,51.10
2019-03-28T02:33:38.788Z,51.30
2019-03-28T02:36:07.489Z,51.20
2019-03-28T02:38:35.996Z,51.40
2019-03-28T02:41:05.064Z,51.40
2019-03-28T02:43:33.632Z,51.60
2019-03-28T02:46:02.229Z,51.40
2019-03-28T02:48:30.766Z,51.30
2019-03-28T02:50:59.229Z,51.40
2019-03-28T02:53:27.771Z,51.50
2019-03-28T02:55:56.353Z,51.40
2019-03-28T02:58:24.921Z,51.40
2019-03-28T03:00:53.721Z,51.50
2019-03-28T03:03:22.357Z,51.50
2019-03-28T03:05:50.882Z,51.60
2019-03-28T03:08:19.571Z,51.50
2019-03-28T03:10:48.102Z,51.50
2019-03-28T03:13:16.573Z,51.40
2019-03-28T03:15:45.124Z,51.70
2019-03-28T03:18:13.800Z,51.80
2019-03-28T03:20:43.543Z,51.80
2019-03-28T03:23:12.516Z,51.80
2019-03-28T03:25:41.155Z,51.80
2019-03-28T03:28:09.839Z,51.80
2019-03-28T03:30:38.544Z,51.80
2019-03-28T03:33:08.953Z,51.80
2019-03-28T03:35:37.536Z,51.90
2019-03-28T03:38:06.183Z,51.90
2019-03-28T03:40:34.871Z,52.60
2019-03-28T03:43:03.524Z,52.00
2019-03-28T03:45:32.200Z,52.00
2019-03-28T03:48:00.848Z,52.00
2019-03-28T03:50:29.844Z,52.10
2019-03-28T03:52:58.531Z,52.00
2019-03-28T03:55:27.231Z,52.00
2019-03-28T03:57:56.034Z,52.00
2019-03-28T04:00:35.766Z,52.00
2019-03-28T04:03:04.452Z,52.00
2019-03-28T04:05:33.236Z,52.20
2019-03-28T04:08:01.797Z,52.30
2019-03-28T04:10:30.401Z,52.30
2019-03-28T04:12:58.945Z,52.30
2019-03-28T04:15:27.456Z,52.30
2019-03-28T04:17:55.928Z,52.40
2019-03-28T04:20:25.070Z,52.30
2019-03-28T04:22:53.915Z,52.40
2019-03-28T04:25:22.615Z,52.30
2019-03-28T04:27:51.124Z,52.20
2019-03-28T04:30:19.777Z,52.00
2019-03-28T04:32:48.306Z,52.20
2019-03-28T04:35:16.832Z,52.30
2019-03-28T04:37:45.268Z,52.60
2019-03-28T04:40:13.802Z,53.00
2019-03-28T04:42:45.639Z,52.30
2019-03-28T04:45:12.608Z,52.30
2019-03-28T04:47:41.091Z,52.40
2019-03-28T04:50:10.315Z,52.30
2019-03-28T04:52:39.130Z,52.60
2019-03-28T04:55:07.642Z,52.60
2019-03-28T04:57:36.168Z,52.60
2019-03-28T05:00:06.101Z,53.00
2019-03-28T05:02:34.579Z,53.50
2019-03-28T05:05:03.164Z,52.90
2019-03-28T05:07:31.888Z,53.10
2019-03-28T05:10:00.404Z,52.90
2019-03-28T05:12:28.963Z,52.90
2019-03-28T05:14:57.445Z,53.00
2019-03-28T05:17:26.008Z,53.20
2019-03-28T05:19:54.591Z,53.20
2019-03-28T05:22:23.275Z,53.10
2019-03-28T05:24:51.857Z,53.10
2019-03-28T05:27:20.440Z,53.00
2019-03-28T05:29:49.228Z,53.40
2019-03-28T05:32:17.975Z,53.40
2019-03-28T05:34:46.599Z,53.40
2019-03-28T05:37:15.280Z,53.50
2019-03-28T05:39:43.863Z,54.20
2019-03-28T05:42:12.362Z,54.00
2019-03-28T05:44:41.132Z,54.20
2019-03-28T05:47:09.717Z,54.50
2019-03-28T05:49:38.398Z,54.20
2019-03-28T05:52:06.934Z,54.30
2019-03-28T05:54:35.418Z,54.80
2019-03-28T05:57:03.927Z,55.00
2019-03-28T05:59:32.447Z,55.00
2019-03-28T06:02:01.001Z,55.00
2019-03-28T06:04:29.682Z,55.20
2019-03-28T06:06:59.128Z,55.00
2019-03-28T06:09:27.768Z,54.90
2019-03-28T06:11:56.351Z,55.20
2019-03-28T06:14:24.933Z,55.30
2019-03-28T06:16:53.515Z,55.10
2019-03-28T06:19:22.199Z,55.70
2019-03-28T06:21:50.689Z,55.80
2019-03-28T06:24:19.201Z,55.70
2019-03-28T06:26:50.125Z,55.80
2019-03-28T06:29:24.231Z,56.10
2019-03-28T06:31:55.340Z,56.10
2019-03-28T06:34:19.249Z,56.30
2019-03-28T06:36:47.787Z,56.20
2019-03-28T06:39:16.494Z,56.10
2019-03-28T06:41:45.363Z,56.20
2019-03-28T06:44:14.224Z,56.10
2019-03-28T06:46:42.778Z,56.20
2019-03-28T06:49:11.308Z,56.10
2019-03-28T06:51:39.784Z,56.10
2019-03-28T06:54:08.403Z,56.10
2019-03-28T06:56:36.975Z,56.20
2019-03-28T06:59:05.661Z,56.20
2019-03-28T07:01:34.209Z,56.10
2019-03-28T07:04:03.064Z,55.90
2019-03-28T07:06:31.769Z,55.80
2019-03-28T07:09:00.319Z,55.90
2019-03-28T07:11:28.836Z,55.80
2019-03-28T07:13:57.457Z,55.60
2019-03-28T07:16:26.354Z,55.60
2019-03-28T07:18:54.960Z,55.40
2019-03-28T07:21:23.723Z,55.30
2019-03-28T07:23:52.253Z,55.40
2019-03-28T07:26:20.756Z,55.40
2019-03-28T07:28:49.343Z,55.40
2019-03-28T07:31:17.985Z,55.30
2019-03-28T07:33:46.573Z,55.40
2019-03-28T07:36:15.209Z,55.40
2019-03-28T07:38:43.781Z,55.40
2019-03-28T07:41:12.476Z,55.10
2019-03-28T07:43:40.964Z,55.20
2019-03-28T07:46:09.472Z,55.20
2019-03-28T07:48:38.131Z,55.20
2019-03-28T07:51:06.800Z,55.20
2019-03-28T07:53:35.393Z,54.90
2019-03-28T07:56:04.072Z,54.90
2019-03-28T07:58:32.860Z,54.80
2019-03-28T08:01:01.545Z,54.90
2019-03-28T08:03:30.143Z,55.00
2019-03-28T08:05:58.810Z,54.90
2019-03-28T08:08:38.263Z,54.90
2019-03-28T08:10:57.622Z,54.80
2019-03-28T08:13:26.299Z,54.90
2019-03-28T08:15:55.088Z,55.00
2019-03-28T08:18:23.925Z,55.10
2019-03-28T08:20:52.664Z,55.00
2019-03-28T08:23:21.223Z,55.00
2019-03-28T08:25:50.133Z,54.90
2019-03-28T08:28:18.917Z,54.90
2019-03-28T08:30:47.605Z,55.00
2019-03-28T08:33:16.273Z,55.00
2019-03-28T08:35:44.872Z,55.00
2019-03-28T08:38:13.453Z,55.00
2019-03-28T08:40:42.935Z,54.60
2019-03-28T08:43:11.537Z,54.70
2019-03-28T08:45:40.220Z,54.70
2019-03-28T08:48:08.802Z,54.80
2019-03-28T08:50:37.488Z,54.70
2019-03-28T08:53:06.181Z,54.40
2019-03-28T08:55:34.965Z,54.50
2019-03-28T08:58:03.657Z,54.40
2019-03-28T09:00:39.028Z,54.50
2019-03-28T09:03:02.650Z,54.10
2019-03-28T09:05:31.337Z,54.70
2019-03-28T09:07:59.919Z,54.00
2019-03-28T09:10:28.866Z,53.90
2019-03-28T09:12:57.919Z,53.80
2019-03-28T09:15:26.700Z,53.80
2019-03-28T09:17:55.482Z,53.60
2019-03-28T09:20:24.166Z,53.60
2019-03-28T09:22:52.852Z,53.50
2019-03-28T09:25:21.740Z,53.50
2019-03-28T09:27:51.706Z,52.90
2019-03-28T09:30:46.795Z,52.80
2019-03-28T09:33:03.042Z,53.20
2019-03-28T09:35:31.855Z,53.00
2019-03-28T09:38:00.626Z,53.00
2019-03-28T09:40:29.314Z,53.00
2019-03-28T09:42:58.302Z,52.60
2019-03-28T09:45:26.886Z,51.90
2019-03-28T09:47:55.559Z,52.60
2019-03-28T09:50:25.180Z,52.60
2019-03-28T09:52:54.268Z,52.40
2019-03-28T09:55:23.056Z,52.20
2019-03-28T09:57:51.741Z,52.10
2019-03-28T10:00:20.525Z,51.90
2019-03-28T10:02:49.315Z,52.10
2019-03-28T10:05:17.993Z,51.90
2019-03-28T10:07:47.003Z,52.50
2019-03-28T10:10:15.772Z,52.10
2019-03-28T10:12:44.370Z,52.00
2019-03-28T10:15:12.933Z,51.40
2019-03-28T10:17:42.543Z,51.60
2019-03-28T10:20:11.430Z,51.70
2019-03-28T10:22:40.139Z,51.90
2019-03-28T10:25:12.191Z,52.10
2019-03-28T10:27:39.020Z,51.50
2019-03-28T10:30:09.954Z,51.60
2019-03-28T10:32:38.745Z,51.30
2019-03-28T10:35:07.535Z,51.60
2019-03-28T10:37:36.116Z,51.70
2019-03-28T10:40:07.419Z,51.60
2019-03-28T10:42:36.042Z,51.10
2019-03-28T10:45:06.533Z,51.30
2019-03-28T10:47:35.152Z,51.40
2019-03-28T10:50:04.584Z,51.40
2019-03-28T10:52:33.130Z,51.40
2019-03-28T10:55:01.825Z,51.10
2019-03-28T10:57:32.028Z,50.70
2019-03-28T11:00:00.828Z,49.80
2019-03-28T11:02:29.503Z,50.00
2019-03-28T11:04:58.199Z,50.60
2019-03-28T11:07:26.997Z,50.90
2019-03-28T11:09:55.874Z,50.00
2019-03-28T11:12:24.565Z,50.30
2019-03-28T11:14:53.346Z,48.90
2019-03-28T11:17:22.137Z,49.30
2019-03-28T11:19:50.713Z,49.70
2019-03-28T11:22:19.509Z,50.10
2019-03-28T11:24:48.103Z,48.70
2019-03-28T11:27:16.852Z,49.10
2019-03-28T11:29:45.658Z,49.00
2019-03-28T11:32:14.445Z,48.70
2019-03-28T11:34:43.029Z,50.40
2019-03-28T11:37:25.469Z,49.00
2019-03-28T11:39:41.934Z,47.70
2019-03-28T11:42:10.616Z,48.50
2019-03-28T11:44:39.403Z,48.60
2019-03-28T11:47:08.190Z,48.10
2019-03-28T11:49:36.770Z,46.70
2019-03-28T11:52:05.461Z,47.30
2019-03-28T11:54:34.144Z,46.80
2019-03-28T11:57:02.825Z,45.60
2019-03-28T11:59:31.614Z,45.50
2019-03-28T12:02:18.361Z,44.70
2019-03-28T12:04:30.517Z,44.70
2019-03-28T12:06:59.207Z,44.70
2019-03-28T12:09:27.900Z,42.70
2019-03-28T12:11:56.474Z,43.30
2019-03-28T12:14:25.274Z,42.50
2019-03-28T12:16:54.353Z,43.70
2019-03-28T12:19:23.136Z,42.80
2019-03-28T12:21:51.930Z,43.40
2019-03-28T12:24:20.717Z,43.40
2019-03-28T12:26:49.297Z,44.30
2019-03-28T12:29:17.979Z,43.30
2019-03-28T12:31:46.568Z,44.20
2019-03-28T12:34:15.157Z,43.50
2019-03-28T12:36:44.612Z,43.10
2019-03-28T12:39:15.625Z,43.60
2019-03-28T12:41:44.172Z,43.80
2019-03-28T12:44:12.855Z,43.60
2019-03-28T12:46:41.635Z,43.70
2019-03-28T12:49:10.330Z,43.50
2019-03-28T12:51:39.009Z,43.20
2019-03-28T12:54:07.811Z,42.90
2019-03-28T12:56:36.470Z,42.60
2019-03-28T12:59:05.176Z,42.90
2019-03-28T13:01:34.055Z,42.50
2019-03-28T13:04:02.837Z,42.30
2019-03-28T13:06:31.522Z,43.10
2019-03-28T13:09:00.308Z,43.30
2019-03-28T13:11:28.892Z,43.00
2019-03-28T13:13:57.575Z,42.40
2019-03-28T13:16:26.229Z,42.20
2019-03-28T13:18:55.046Z,42.00
2019-03-28T13:21:23.629Z,41.90
2019-03-28T13:23:52.416Z,42.20
2019-03-28T13:26:21.105Z,42.10
2019-03-28T13:28:49.696Z,42.20
2019-03-28T13:31:18.374Z,42.10
2019-03-28T13:33:47.155Z,42.00
2019-03-28T13:36:15.945Z,42.40
2019-03-28T13:38:44.738Z,41.90
2019-03-28T13:41:13.392Z,41.30
2019-03-28T13:43:42.322Z,41.20
2019-03-28T13:46:11.088Z,40.10
2019-03-28T13:48:39.670Z,40.50
2019-03-28T13:51:08.561Z,41.30
2019-03-28T13:53:39.810Z,41.80
2019-03-28T13:56:07.570Z,41.90
2019-03-28T13:58:36.471Z,42.10
2019-03-28T14:01:05.145Z,42.60
2019-03-28T14:03:34.046Z,42.60
2019-03-28T14:06:04.361Z,42.60
2019-03-28T14:08:33.040Z,41.80
2019-03-28T14:11:01.620Z,41.50
2019-03-28T14:13:30.614Z,41.30
2019-03-28T14:15:59.397Z,42.00
2019-03-28T14:18:28.290Z,42.20
2019-03-28T14:20:57.112Z,42.40
2019-03-28T14:23:25.862Z,42.60
2019-03-28T14:25:54.640Z,42.80
2019-03-28T14:28:23.231Z,42.90
2019-03-28T14:30:52.019Z,42.90
2019-03-28T14:33:20.811Z,43.20
2019-03-28T14:35:49.497Z,43.00
2019-03-28T14:38:18.076Z,42.90
2019-03-28T14:40:46.867Z,42.90
2019-03-28T14:43:15.440Z,42.70
2019-03-28T14:45:44.339Z,42.90
2019-03-28T14:48:12.913Z,43.30
2019-03-28T14:50:41.675Z,43.40
2019-03-28T14:53:10.490Z,43.60
2019-03-28T14:55:39.070Z,43.60
2019-03-28T14:58:07.878Z,43.50
2019-03-28T15:00:46.684Z,43.50
2019-03-28T15:03:25.508Z,43.50
2019-03-28T15:05:45.173Z,43.40
2019-03-28T15:08:13.863Z,43.60
2019-03-28T15:10:42.646Z,43.70
2019-03-28T15:13:11.332Z,43.80
2019-03-28T15:15:40.228Z,43.70
2019-03-28T15:18:08.907Z,43.90
2019-03-28T15:20:37.695Z,44.00
2019-03-28T15:23:06.388Z,43.90
2019-03-28T15:25:35.372Z,44.20
2019-03-28T15:28:04.155Z,44.20
2019-03-28T15:30:32.828Z,44.30
2019-03-28T15:33:01.769Z,44.70
2019-03-28T15:35:30.415Z,44.90
2019-03-28T15:37:59.101Z,44.80
2019-03-28T15:40:27.787Z,44.50
2019-03-28T15:42:56.568Z,44.70
2019-03-28T15:45:25.159Z,44.70
2019-03-28T15:47:54.156Z,44.60
2019-03-28T15:50:22.828Z,44.20
2019-03-28T15:52:51.650Z,44.20
2019-03-28T15:55:20.301Z,44.50
2019-03-28T15:57:48.986Z,44.60
2019-03-28T16:00:17.973Z,44.70
2019-03-28T16:02:46.764Z,44.70
2019-03-28T16:05:15.333Z,44.80
2019-03-28T16:07:44.132Z,44.90
2019-03-28T16:10:14.803Z,44.80
2019-03-28T16:12:43.356Z,44.80
2019-03-28T16:15:12.030Z,45.10
2019-03-28T16:17:40.710Z,45.00
2019-03-28T16:20:09.909Z,45.00
2019-03-28T16:22:38.923Z,45.10
2019-03-28T16:25:08.105Z,45.00
2019-03-28T16:27:36.781Z,45.00
2019-03-28T16:30:09.755Z,44.90
2019-03-28T16:32:38.350Z,44.70
2019-03-28T16:35:07.239Z,44.70
2019-03-28T16:37:35.822Z,44.90
2019-03-28T16:40:05.225Z,45.20
2019-03-28T16:42:34.119Z,45.10
2019-03-28T16:45:03.109Z,45.00
2019-03-28T16:47:32.100Z,44.80
2019-03-28T16:50:01.916Z,44.60
2019-03-28T16:52:30.696Z,44.60
2019-03-28T16:54:59.379Z,44.50
2019-03-28T16:57:28.068Z,44.70
2019-03-28T16:59:56.758Z,44.70
2019-03-28T17:02:25.435Z,44.60
2019-03-28T17:04:54.284Z,44.70
2019-03-28T17:07:23.012Z,44.70
2019-03-28T17:09:52.016Z,44.70
2019-03-28T17:12:20.580Z,44.70
2019-03-28T17:14:49.154Z,44.90
2019-03-28T17:17:17.743Z,44.90
2019-03-28T17:19:46.311Z,45.00
2019-03-28T17:22:15.009Z,45.10
2019-03-28T17:24:43.696Z,45.00
2019-03-28T17:27:12.382Z,45.00
2019-03-28T17:29:41.271Z,45.10
2019-03-28T17:32:10.944Z,45.20
2019-03-28T17:34:39.666Z,45.30
2019-03-28T17:37:08.342Z,45.40
2019-03-28T17:39:36.935Z,45.40
2019-03-28T17:42:06.309Z,45.50
2019-03-28T17:44:35.329Z,45.50
2019-03-28T17:47:04.013Z,45.50
2019-03-28T17:49:32.902Z,45.50
2019-03-28T17:52:04.360Z,45.50
2019-03-28T17:54:33.132Z,45.50
2019-03-28T17:57:01.815Z,45.60
2019-03-28T17:59:30.824Z,45.70
2019-03-28T18:01:59.702Z,45.70
2019-03-28T18:04:28.385Z,45.90
2019-03-28T18:06:57.209Z,45.90
2019-03-28T18:09:26.145Z,45.80
2019-03-28T18:11:54.844Z,46.00
2019-03-28T18:14:23.750Z,45.90
2019-03-28T18:16:52.725Z,46.00
2019-03-28T18:19:26.635Z,46.30
2019-03-28T18:22:03.842Z,46.20
2019-03-28T18:24:32.136Z,46.30
2019-03-28T18:27:01.689Z,46.40
2019-03-28T18:29:31.602Z,46.60
2019-03-28T18:32:00.501Z,46.40
2019-03-28T18:34:29.304Z,46.60
2019-03-28T18:36:57.978Z,47.10
2019-03-28T18:39:26.716Z,46.60
2019-03-28T18:41:56.661Z,46.60
2019-03-28T18:44:25.331Z,46.70
2019-03-28T18:46:53.837Z,46.60
2019-03-28T18:49:22.528Z,46.60
2019-03-28T18:51:51.091Z,46.80
2019-03-28T18:54:20.393Z,46.70
2019-03-28T18:56:50.764Z,46.70
2019-03-28T18:59:19.467Z,46.80
2019-03-28T19:01:48.126Z,46.80
2019-03-28T19:04:16.882Z,47.10
2019-03-28T19:06:45.465Z,47.10
2019-03-28T19:09:14.150Z,47.10
2019-03-28T19:11:42.837Z,47.30
2019-03-28T19:14:11.518Z,47.60
2019-03-28T19:16:40.622Z,47.40
2019-03-28T19:19:10.528Z,47.70
2019-03-28T19:21:39.110Z,48.00
2019-03-28T19:24:07.911Z,48.00
2019-03-28T19:26:36.581Z,48.20
2019-03-28T19:29:05.272Z,48.20
2019-03-28T19:31:34.466Z,48.50
2019-03-28T19:34:03.372Z,48.60
2019-03-28T19:36:31.922Z,48.40
2019-03-28T19:39:00.924Z,48.30
2019-03-28T19:41:31.837Z,48.50
2019-03-28T19:44:00.751Z,48.40
2019-03-28T19:46:29.667Z,48.60
2019-03-28T19:48:58.208Z,48.30
2019-03-28T19:51:28.385Z,48.60
2019-03-28T19:53:57.333Z,48.60
2019-03-28T19:56:26.023Z,48.90
2019-03-28T19:58:57.152Z,48.90
2019-03-28T20:01:25.024Z,49.00
2019-03-28T20:03:55.047Z,48.80
2019-03-28T20:06:24.417Z,48.90
2019-03-28T20:08:53.595Z,49.00
2019-03-28T20:11:22.326Z,49.10
2019-03-28T20:13:51.110Z,49.20
2019-03-28T20:16:19.896Z,49.40
2019-03-28T20:18:48.487Z,49.50
2019-03-28T20:21:17.085Z,49.80
2019-03-28T20:23:45.644Z,50.00
2019-03-28T20:26:15.907Z,49.90
2019-03-28T20:28:46.221Z,49.70
2019-03-28T20:31:14.867Z,49.90
2019-03-28T20:33:43.650Z,50.30
2019-03-28T20:36:36.268Z,50.00
2019-03-28T20:38:44.666Z,50.50
2019-03-28T20:41:13.400Z,50.10
2019-03-28T20:43:42.092Z,50.40
2019-03-28T20:46:11.179Z,50.30
2019-03-28T20:48:39.931Z,51.30
2019-03-28T20:51:08.648Z,50.70
2019-03-28T20:53:37.940Z,50.90
2019-03-28T20:56:06.940Z,50.80
2019-03-28T20:58:35.733Z,50.80
2019-03-28T21:01:05.059Z,50.80
2019-03-28T21:03:33.920Z,50.70
2019-03-28T21:06:14.692Z,50.80
2019-03-28T21:08:33.030Z,51.00
2019-03-28T21:11:01.816Z,51.20
2019-03-28T21:13:31.169Z,51.10
2019-03-28T21:16:00.228Z,50.80
2019-03-28T21:18:28.795Z,51.50
2019-03-28T21:20:58.814Z,51.80
2019-03-28T21:23:27.431Z,51.90
2019-03-28T21:25:59.352Z,52.40
2019-03-28T21:28:28.067Z,52.70
2019-03-28T21:30:59.007Z,52.20
2019-03-28T21:33:27.279Z,52.60
2019-03-28T21:35:55.881Z,52.70
2019-03-28T21:38:24.625Z,52.10
2019-03-28T21:40:53.811Z,52.30
2019-03-28T21:43:22.496Z,52.50
2019-03-28T21:45:51.298Z,52.80
2019-03-28T21:48:20.074Z,53.00
2019-03-28T21:50:48.974Z,52.90
2019-03-28T21:53:20.093Z,53.10
2019-03-28T21:55:55.446Z,53.60
2019-03-28T21:58:21.804Z,53.60
2019-03-28T22:00:52.693Z,54.20
2019-03-28T22:03:21.803Z,53.80
2019-03-28T22:05:51.419Z,54.70
2019-03-28T22:08:20.181Z,54.80
2019-03-28T22:10:48.981Z,54.40
2019-03-28T22:13:17.565Z,54.60
2019-03-28T22:15:46.152Z,54.50
2019-03-28T22:18:14.979Z,54.90
2019-03-28T22:20:44.086Z,55.20
2019-03-28T22:23:13.676Z,54.90
2019-03-28T22:25:42.627Z,54.70
2019-03-28T22:28:11.309Z,54.70
2019-03-28T22:30:39.891Z,55.10
2019-03-28T22:33:08.780Z,55.10
2019-03-28T22:35:37.571Z,55.10
2019-03-28T22:38:06.256Z,55.30
2019-03-28T22:40:34.840Z,54.90
2019-03-28T22:43:03.427Z,55.10
2019-03-28T22:45:32.109Z,55.10
2019-03-28T22:48:10.518Z,55.90
2019-03-28T22:50:30.973Z,55.90
2019-03-28T22:52:59.661Z,55.30
2019-03-28T22:55:28.139Z,55.70
2019-03-28T22:57:58.253Z,55.20
2019-03-28T23:00:40.451Z,55.30
2019-03-28T23:03:09.140Z,55.60
2019-03-28T23:05:37.760Z,55.50
2019-03-28T23:08:06.376Z,55.60
2019-03-28T23:10:35.444Z,55.80
2019-03-28T23:13:04.016Z,55.90
2019-03-28T23:15:32.673Z,55.90
2019-03-28T23:18:01.212Z,56.00
2019-03-28T23:20:29.689Z,56.10
2019-03-28T23:22:59.802Z,56.20
2019-03-28T23:25:28.569Z,56.50
2019-03-28T23:27:57.085Z,56.30
2019-03-28T23:30:25.719Z,56.10
2019-03-28T23:32:54.219Z,56.00
2019-03-28T23:35:22.696Z,56.20
2019-03-28T23:37:51.376Z,55.90
2019-03-28T23:40:19.911Z,56.10
2019-03-28T23:42:48.468Z,56.30
2019-03-28T23:45:17.020Z,56.20
2019-03-28T23:47:45.702Z,56.00
2019-03-28T23:50:14.385Z,56.10
2019-03-28T23:52:43.099Z,56.20
2019-03-28T23:55:11.746Z,56.20
2019-03-28T23:57:40.337Z,56.30
